Tram, Kentucky
Current Conditions -  °F | °C
As of 5:15 PM on Saturday 25 Oct 2014 (Local Time) from KPBX Reporting Station
Overcast Overcast  
Wind Chill: 65°   Ceiling: 3100
Heat Index: 65°   Visibility: 10mi
Dew Point: 49°   Wind: 6mph
Humidity: 57%   Direction: 220°SW
Pressure: 29.97"   Gusts: NA
Location:  37.57°N, 82.65°W
Report Text: KPBX 252115Z AUTO 22005KT 10SM OVC031 18/10 A2997 RMK AO2 T01820096
Loading
Personal Weather Stations






























Interactive Weather Map
Tropical Storm Tracking
New forecast layout! Learn more

10-Day Weather Forecast

Advertisements
Track Severe Weather on mobile